createdAt,value
2023-04-01T00:00:56.923Z,97233.31
2023-04-01T00:03:23.308Z,97255.03
2023-04-01T00:05:49.898Z,97259.31
2023-04-01T00:08:16.182Z,97257.31
2023-04-01T00:10:42.379Z,97237.16
2023-04-01T00:13:08.585Z,97237.00
2023-04-01T00:15:34.809Z,97199.44
2023-04-01T00:18:01.012Z,97208.59
2023-04-01T00:20:27.349Z,97216.69
2023-04-01T00:22:53.569Z,97221.47
2023-04-01T00:25:19.784Z,97266.56
2023-04-01T00:27:46.017Z,97250.69
2023-04-01T00:30:12.281Z,97248.81
2023-04-01T00:32:38.536Z,97236.19
2023-04-01T00:35:04.939Z,97207.50
2023-04-01T00:37:31.191Z,97212.09
2023-04-01T00:39:57.448Z,97213.28
2023-04-01T00:42:23.696Z,97196.97
2023-04-01T00:44:53.471Z,97210.09
2023-04-01T00:47:19.696Z,97231.44
2023-04-01T00:49:49.834Z,97237.19
2023-04-01T00:52:16.707Z,97257.09
2023-04-01T00:54:43.662Z,97252.84
2023-04-01T00:57:10.881Z,97261.22
2023-04-01T00:59:38.651Z,97265.44
2023-04-01T01:02:05.478Z,97250.59
2023-04-01T01:04:32.376Z,97245.81
2023-04-01T01:07:17.650Z,97224.03
2023-04-01T01:09:59.047Z,97215.03
2023-04-01T01:12:26.837Z,97181.22
2023-04-01T01:14:58.238Z,97137.06
2023-04-01T01:17:27.035Z,97139.00
2023-04-01T01:19:56.230Z,97127.28
2023-04-01T01:22:22.397Z,97134.72
2023-04-01T01:24:56.833Z,97152.66
2023-04-01T01:27:23.045Z,97160.19
2023-04-01T01:29:55.392Z,97152.44
2023-04-01T01:32:34.331Z,97151.50
2023-04-01T01:35:19.352Z,97128.28
2023-04-01T01:37:45.611Z,97142.63
2023-04-01T01:40:11.903Z,97142.16
2023-04-01T01:42:39.281Z,97135.31
2023-04-01T01:45:06.094Z,97121.78
2023-04-01T01:47:32.568Z,97124.38
2023-04-01T01:49:58.844Z,97127.91
2023-04-01T01:52:25.158Z,97144.44
2023-04-01T01:54:55.195Z,97170.22
2023-04-01T01:57:25.828Z,97156.41
2023-04-01T01:59:52.611Z,97153.06
2023-04-01T02:02:18.848Z,97146.41
2023-04-01T02:04:45.224Z,97158.06
2023-04-01T02:07:16.479Z,97161.44
2023-04-01T02:09:42.682Z,97189.41
2023-04-01T02:12:09.179Z,97206.19
2023-04-01T02:14:40.634Z,97212.34
2023-04-01T02:17:08.652Z,97213.22
2023-04-01T02:19:37.211Z,97205.97
2023-04-01T02:22:03.782Z,97179.59
2023-04-01T02:24:30.982Z,97185.81
2023-04-01T02:26:57.261Z,97178.00
2023-04-01T02:29:24.089Z,97185.56
2023-04-01T02:31:50.337Z,97188.16
2023-04-01T02:34:16.600Z,97227.66
2023-04-01T02:36:42.792Z,97215.00
2023-04-01T02:39:09.001Z,97228.31
2023-04-01T02:41:41.830Z,97245.69
2023-04-01T02:44:08.209Z,97241.84
2023-04-01T02:46:34.426Z,97231.97
2023-04-01T02:49:00.638Z,97210.41
2023-04-01T02:51:26.848Z,97210.41
2023-04-01T02:53:53.062Z,97206.97
2023-04-01T02:56:19.274Z,97220.28
2023-04-01T02:58:45.512Z,97248.94
2023-04-01T03:01:11.767Z,97242.41
2023-04-01T03:03:38.088Z,97213.59
2023-04-01T03:06:11.214Z,97211.38
2023-04-01T03:08:37.499Z,97214.44
2023-04-01T03:11:03.698Z,97235.06
2023-04-01T03:13:29.921Z,97226.91
2023-04-01T03:15:56.241Z,97232.56
2023-04-01T03:18:22.542Z,97233.75
2023-04-01T03:20:48.792Z,97229.91
2023-04-01T03:23:14.993Z,97232.28
2023-04-01T03:25:41.213Z,97224.94
2023-04-01T03:28:07.432Z,97236.13
2023-04-01T03:30:33.659Z,97237.25
2023-04-01T03:32:59.940Z,97238.25
2023-04-01T03:35:26.155Z,97223.38
2023-04-01T03:37:53.749Z,97228.09
2023-04-01T03:40:20.226Z,97220.22
2023-04-01T03:42:46.453Z,97224.44
2023-04-01T03:45:12.696Z,97211.63
2023-04-01T03:47:39.344Z,97217.91
2023-04-01T03:50:05.883Z,97228.84
2023-04-01T03:52:32.106Z,97229.13
2023-04-01T03:54:58.338Z,97232.00
2023-04-01T03:57:24.582Z,97250.69
2023-04-01T03:59:50.904Z,97247.59
2023-04-01T04:02:17.174Z,97248.66
2023-04-01T04:04:43.576Z,97234.41
2023-04-01T04:07:09.861Z,97217.63
2023-04-01T04:09:36.074Z,97218.22
2023-04-01T04:12:02.276Z,97209.06
2023-04-01T04:14:28.492Z,97202.34
2023-04-01T04:16:54.697Z,97197.06
2023-04-01T04:19:20.923Z,97218.13
2023-04-01T04:21:47.124Z,97236.38
2023-04-01T04:24:13.388Z,97236.88
2023-04-01T04:26:39.586Z,97248.44
2023-04-01T04:29:05.799Z,97258.09
2023-04-01T04:31:32.035Z,97248.16
2023-04-01T04:33:59.315Z,97274.28
2023-04-01T04:36:25.541Z,97296.09
2023-04-01T04:38:51.744Z,97300.28
2023-04-01T04:41:18.342Z,97306.78
2023-04-01T04:43:49.435Z,97315.88
2023-04-01T04:46:15.798Z,97313.50
2023-04-01T04:48:42.016Z,97324.31
2023-04-01T04:51:08.231Z,97333.50
2023-04-01T04:53:34.426Z,97372.91
2023-04-01T04:56:00.643Z,97372.06
2023-04-01T04:58:26.986Z,97390.72
2023-04-01T05:00:53.270Z,97403.06
2023-04-01T05:03:19.623Z,97406.56
2023-04-01T05:05:49.742Z,97402.66
2023-04-01T05:08:15.972Z,97393.38
2023-04-01T05:10:42.187Z,97389.19
2023-04-01T05:13:08.527Z,97403.28
2023-04-01T05:15:35.036Z,97401.31
2023-04-01T05:18:01.536Z,97418.50
2023-04-01T05:20:28.017Z,97433.72
2023-04-01T05:22:57.777Z,97440.47
2023-04-01T05:25:24.040Z,97440.44
2023-04-01T05:27:50.364Z,97443.22
2023-04-01T05:30:16.610Z,97438.06
2023-04-01T05:32:42.865Z,97448.75
2023-04-01T05:35:09.253Z,97444.34
2023-04-01T05:37:35.679Z,97422.91
2023-04-01T05:40:02.127Z,97419.03
2023-04-01T05:42:28.356Z,97410.47
2023-04-01T05:44:54.563Z,97417.75
2023-04-01T05:47:21.003Z,97427.31
2023-04-01T05:49:47.304Z,97423.66
2023-04-01T05:52:13.531Z,97410.97
2023-04-01T05:54:42.178Z,97407.41
2023-04-01T05:57:08.539Z,97428.56
2023-04-01T05:59:34.846Z,97435.31
2023-04-01T06:02:01.218Z,97451.31
2023-04-01T06:04:27.541Z,97456.84
2023-04-01T06:06:53.838Z,97457.59
2023-04-01T06:09:20.829Z,97459.59
2023-04-01T06:11:47.003Z,97444.63
2023-04-01T06:14:13.163Z,97439.94
2023-04-01T06:16:45.362Z,97455.94
2023-04-01T06:19:17.621Z,97480.50
2023-04-01T06:21:48.600Z,97469.16
2023-04-01T06:24:22.271Z,97463.88
2023-04-01T06:26:54.440Z,97480.44
2023-04-01T06:29:27.121Z,97485.66
2023-04-01T06:31:59.768Z,97487.13
2023-04-01T06:34:32.365Z,97492.59
2023-04-01T06:37:02.741Z,97498.25
2023-04-01T06:39:32.593Z,97489.72
2023-04-01T06:42:10.932Z,97486.09
2023-04-01T06:44:55.990Z,97482.66
2023-04-01T06:47:24.659Z,97498.72
2023-04-01T06:50:09.831Z,97504.72
2023-04-01T06:52:39.181Z,97517.59
2023-04-01T06:55:14.620Z,97513.88
2023-04-01T06:57:42.300Z,97514.66
2023-04-01T07:00:31.900Z,97508.25
2023-04-01T07:03:04.337Z,97531.75
2023-04-01T07:05:32.816Z,97525.06
2023-04-01T07:08:02.086Z,97535.81
2023-04-01T07:10:43.564Z,97553.91
2023-04-01T07:13:30.187Z,97578.00
2023-04-01T07:16:05.964Z,97575.69
2023-04-01T07:18:42.881Z,97577.44
2023-04-01T07:21:24.280Z,97589.59
2023-04-01T07:23:50.516Z,97602.22
2023-04-01T07:26:18.365Z,97606.44
2023-04-01T07:28:44.599Z,97630.00
2023-04-01T07:31:13.852Z,97643.91
2023-04-01T07:33:43.112Z,97661.72
2023-04-01T07:36:11.998Z,97688.59
2023-04-01T07:38:53.782Z,97691.69
2023-04-01T07:41:38.347Z,97711.63
2023-04-01T07:44:09.679Z,97723.72
2023-04-01T07:46:35.950Z,97706.56
2023-04-01T07:49:04.845Z,97726.69
2023-04-01T07:51:49.931Z,97740.38
2023-04-01T07:54:30.619Z,97759.25
2023-04-01T07:56:56.824Z,97763.81
2023-04-01T07:59:29.595Z,97779.94
2023-04-01T08:02:08.005Z,97791.44
2023-04-01T08:04:38.110Z,97792.22
2023-04-01T08:07:10.502Z,97820.69
2023-04-01T08:09:51.100Z,97815.47
2023-04-01T08:12:17.286Z,97830.72
2023-04-01T08:15:00.440Z,97850.13
2023-04-01T08:17:36.269Z,97870.16
2023-04-01T08:20:17.163Z,97883.72
2023-04-01T08:22:44.119Z,97896.75
2023-04-01T08:25:12.079Z,97885.59
2023-04-01T08:27:38.801Z,97901.94
2023-04-01T08:30:31.640Z,97898.19
2023-04-01T08:32:59.315Z,97887.34
2023-04-01T08:35:32.092Z,97889.88
2023-04-01T08:38:03.448Z,97892.53
2023-04-01T08:40:38.928Z,97897.97
2023-04-01T08:43:05.150Z,97909.56
2023-04-01T08:45:43.205Z,97901.53
2023-04-01T08:48:26.006Z,97895.16
2023-04-01T08:51:11.064Z,97901.41
2023-04-01T08:53:58.231Z,97903.25
2023-04-01T08:56:24.694Z,97899.97
2023-04-01T08:58:50.871Z,97891.47
2023-04-01T09:01:36.086Z,97879.94
2023-04-01T09:04:02.383Z,97869.25
2023-04-01T09:06:36.533Z,97851.19
2023-04-01T09:09:08.806Z,97840.59
2023-04-01T09:11:41.011Z,97839.59
2023-04-01T09:14:07.229Z,97840.44
2023-04-01T09:16:33.516Z,97829.59
2023-04-01T09:19:18.297Z,97800.84
2023-04-01T09:21:57.581Z,97816.94
2023-04-01T09:24:27.071Z,97828.06
2023-04-01T09:27:06.636Z,97836.81
2023-04-01T09:29:55.808Z,97837.09
2023-04-01T09:32:32.647Z,97833.75
2023-04-01T09:35:17.482Z,97840.50
2023-04-01T09:37:46.412Z,97840.50
2023-04-01T09:40:31.373Z,97831.16
2023-04-01T09:43:17.476Z,97848.75
2023-04-01T09:46:02.698Z,97840.50
2023-04-01T09:48:46.476Z,97847.53
2023-04-01T09:51:12.691Z,97874.91
2023-04-01T09:53:54.187Z,97871.78
2023-04-01T09:56:20.364Z,97878.47
2023-04-01T09:59:09.112Z,97868.34
2023-04-01T10:01:54.328Z,97901.72
2023-04-01T10:04:39.484Z,97908.91
2023-04-01T10:07:24.263Z,97908.38
2023-04-01T10:09:53.278Z,97910.44
2023-04-01T10:12:55.188Z,97918.75
2023-04-01T10:15:24.485Z,97901.97
2023-04-01T10:17:54.305Z,97907.41
2023-04-01T10:20:23.703Z,97890.38
2023-04-01T10:22:52.004Z,97886.22
2023-04-01T10:25:37.075Z,97890.34
2023-04-01T10:28:13.341Z,97903.53
2023-04-01T10:30:44.138Z,97916.66
2023-04-01T10:33:29.192Z,97916.63
2023-04-01T10:36:13.509Z,97937.03
2023-04-01T10:38:48.365Z,97939.34
2023-04-01T10:41:23.665Z,97941.91
2023-04-01T10:43:59.006Z,97969.91
2023-04-01T10:46:38.403Z,97966.03
2023-04-01T10:49:23.357Z,97980.47
2023-04-01T10:52:12.864Z,97960.88
2023-04-01T10:54:41.511Z,97969.63
2023-04-01T10:57:29.531Z,97998.28
2023-04-01T11:00:01.786Z,98022.06
2023-04-01T11:02:34.402Z,98037.56
2023-04-01T11:05:22.454Z,98072.94
2023-04-01T11:08:05.359Z,98099.25
2023-04-01T11:10:51.616Z,98081.97
2023-04-01T11:13:33.017Z,98109.88
2023-04-01T11:16:05.076Z,98107.78
2023-04-01T11:18:31.347Z,98119.91
2023-04-01T11:20:57.520Z,98128.69
2023-04-01T11:23:29.303Z,98141.34
2023-04-01T11:26:14.455Z,98161.47
2023-04-01T11:28:44.268Z,98182.66
2023-04-01T11:31:29.347Z,98188.59
2023-04-01T11:34:02.342Z,98220.66
2023-04-01T11:36:46.944Z,98242.59
2023-04-01T11:39:30.882Z,98290.88
2023-04-01T11:42:15.845Z,98300.69
2023-04-01T11:44:48.560Z,98307.69
2023-04-01T11:47:36.179Z,98316.47
2023-04-01T11:50:21.830Z,98320.34
2023-04-01T11:53:00.291Z,98325.50
2023-04-01T11:55:29.454Z,98334.03
2023-04-01T11:58:19.733Z,98375.31
2023-04-01T12:01:27.117Z,98414.81
2023-04-01T12:04:11.488Z,98429.25
2023-04-01T12:06:45.144Z,98449.91
2023-04-01T12:09:11.411Z,98467.19
2023-04-01T12:11:49.087Z,98456.09
2023-04-01T12:14:44.553Z,98465.44
2023-04-01T12:17:27.529Z,98486.09
2023-04-01T12:19:59.931Z,98532.81
2023-04-01T12:22:38.481Z,98545.75
2023-04-01T12:25:04.908Z,98574.88
2023-04-01T12:27:34.283Z,98588.13
2023-04-01T12:30:09.685Z,98596.09
2023-04-01T12:33:00.008Z,98615.97
2023-04-01T12:35:33.602Z,98625.50
2023-04-01T12:38:16.849Z,98635.06
2023-04-01T12:40:47.474Z,98659.53
2023-04-01T12:43:34.690Z,98677.97
2023-04-01T12:46:19.765Z,98673.41
2023-04-01T12:49:06.982Z,98682.97
2023-04-01T12:51:42.199Z,98751.81
2023-04-01T12:54:32.682Z,98778.91
2023-04-01T12:57:12.160Z,98770.97
2023-04-01T12:59:47.848Z,98804.69
2023-04-01T13:02:25.540Z,98822.03
2023-04-01T13:05:01.014Z,98821.28
2023-04-01T13:07:44.616Z,98840.69
2023-04-01T13:13:28.228Z,98875.97
2023-04-01T13:16:07.140Z,98873.31
2023-04-01T13:18:54.614Z,98883.50
2023-04-01T13:21:36.777Z,98873.16
2023-04-01T13:24:33.160Z,98878.00
2023-04-01T13:27:20.632Z,98900.16
2023-04-01T13:30:19.167Z,98953.09
2023-04-01T13:32:52.838Z,98960.59
2023-04-01T13:35:44.195Z,98980.22
2023-04-01T13:38:35.608Z,98991.66
2023-04-01T13:41:13.992Z,99001.81
2023-04-01T13:47:08.599Z,99012.22
2023-04-01T13:49:57.012Z,99053.00
2023-04-01T13:55:50.772Z,99085.41
2023-04-01T13:58:22.111Z,99080.59
2023-04-01T14:01:09.500Z,99105.84
2023-04-01T14:09:40.130Z,99141.31
2023-04-01T14:12:27.033Z,99153.78
2023-04-01T14:14:59.163Z,99158.84
2023-04-01T14:20:50.763Z,99193.31
2023-04-01T14:23:35.456Z,99217.34
2023-04-01T14:29:14.025Z,99258.63
2023-04-01T14:31:43.352Z,99262.91
2023-04-01T14:34:44.802Z,99269.63
2023-04-01T14:37:29.415Z,99295.13
2023-04-01T14:40:14.384Z,99296.47
2023-04-01T14:42:49.184Z,99313.38
2023-04-01T14:45:36.794Z,99320.69
2023-04-01T14:48:08.507Z,99335.84
2023-04-01T14:50:42.071Z,99356.69
2023-04-01T14:53:08.345Z,99362.53
2023-04-01T14:55:45.250Z,99373.41
2023-04-01T14:58:12.703Z,99381.84
2023-04-01T15:00:48.072Z,99415.50
2023-04-01T15:03:19.964Z,99430.09
2023-04-01T15:05:58.519Z,99447.66
2023-04-01T15:08:26.879Z,99459.25
2023-04-01T15:10:54.455Z,99473.16
2023-04-01T15:13:20.673Z,99472.44
2023-04-01T15:15:58.859Z,99480.78
2023-04-01T15:18:30.726Z,99501.44
2023-04-01T15:21:06.060Z,99535.38
2023-04-01T15:23:53.347Z,99529.44
2023-04-01T15:26:24.985Z,99556.00
2023-04-01T15:28:58.077Z,99553.22
2023-04-01T15:31:47.550Z,99570.66
2023-04-01T15:34:18.520Z,99592.66
2023-04-01T15:36:47.991Z,99613.22
2023-04-01T15:39:14.405Z,99609.97
2023-04-01T15:41:59.300Z,99657.28
2023-04-01T15:44:31.259Z,99670.75
2023-04-01T15:46:57.969Z,99667.81
2023-04-01T15:49:37.425Z,99710.88
2023-04-01T15:52:07.090Z,99708.75
2023-04-01T15:54:36.037Z,99700.72
2023-04-01T15:57:16.187Z,99713.91
2023-04-01T15:59:57.867Z,99733.31
2023-04-01T16:02:36.196Z,99732.88
2023-04-01T16:05:08.534Z,99764.09
2023-04-01T16:07:50.307Z,99780.56
2023-04-01T16:10:35.298Z,99788.91
2023-04-01T16:13:07.320Z,99791.28
2023-04-01T16:15:38.398Z,99795.72
2023-04-01T16:18:27.650Z,99815.19
2023-04-01T16:21:04.058Z,99816.94
2023-04-01T16:23:34.440Z,99823.09
2023-04-01T16:26:09.484Z,99828.00
2023-04-01T16:28:54.551Z,99852.25
2023-04-01T16:31:37.050Z,99868.00
2023-04-01T16:34:09.965Z,99880.31
2023-04-01T16:36:49.695Z,99897.59
2023-04-01T16:39:36.231Z,99899.75
2023-04-01T16:42:11.648Z,99898.38
2023-04-01T16:44:57.864Z,99909.69
2023-04-01T16:47:24.809Z,99919.38
2023-04-01T16:49:54.328Z,99927.56
2023-04-01T16:52:40.185Z,99938.69
2023-04-01T16:55:19.470Z,99953.56
2023-04-01T16:57:48.751Z,99964.88
2023-04-01T17:00:18.287Z,99973.63
2023-04-01T17:02:48.509Z,99978.56
2023-04-01T17:05:14.826Z,99970.44
2023-04-01T17:07:47.361Z,99975.00
2023-04-01T17:10:32.629Z,99981.97
2023-04-01T17:13:17.833Z,99987.91
2023-04-01T17:15:46.567Z,99992.50
2023-04-01T17:18:21.928Z,100007.00
2023-04-01T17:20:54.257Z,100023.63
2023-04-01T17:23:35.083Z,100041.09
2023-04-01T17:26:17.157Z,100076.97
2023-04-01T17:29:02.172Z,100082.72
2023-04-01T17:31:45.931Z,100099.78
2023-04-01T17:34:15.526Z,100091.06
2023-04-01T17:36:51.093Z,100066.31
2023-04-01T17:39:17.349Z,100042.94
2023-04-01T17:41:47.147Z,100052.03
2023-04-01T17:44:17.082Z,100035.19
2023-04-01T17:47:02.149Z,100018.75
2023-04-01T17:49:43.777Z,100027.66
2023-04-01T17:52:16.130Z,100045.91
2023-04-01T17:54:45.446Z,100035.59
2023-04-01T17:57:23.797Z,100076.63
2023-04-01T17:59:52.505Z,100114.69
2023-04-01T18:02:31.050Z,100128.94
2023-04-01T18:05:15.700Z,100145.41
2023-04-01T18:07:48.437Z,100162.03
2023-04-01T18:10:18.638Z,100188.78
2023-04-01T18:13:03.722Z,100213.56
2023-04-01T18:15:34.729Z,100240.34
2023-04-01T18:18:13.286Z,100241.72
2023-04-01T18:20:44.367Z,100235.19
2023-04-01T18:23:25.165Z,100252.81
2023-04-01T18:25:53.247Z,100260.53
2023-04-01T18:28:28.150Z,100263.72
2023-04-01T18:31:03.713Z,100280.16
2023-04-01T18:33:35.190Z,100276.22
2023-04-01T18:36:14.488Z,100255.41
2023-04-01T18:38:42.981Z,100244.28
2023-04-01T18:41:21.463Z,100253.97
2023-04-01T18:43:56.881Z,100205.22
2023-04-01T18:46:41.550Z,100180.22
2023-04-01T18:49:09.140Z,100185.91
2023-04-01T18:51:54.429Z,100214.47
2023-04-01T18:54:22.528Z,100188.75
2023-04-01T18:56:48.798Z,100187.56
2023-04-01T18:59:17.988Z,100207.75
2023-04-01T19:01:58.588Z,100236.28
2023-04-01T19:04:27.965Z,100265.41
2023-04-01T19:06:56.674Z,100298.31
2023-04-01T19:09:27.538Z,100316.13
2023-04-01T19:12:12.645Z,100322.47
2023-04-01T19:14:52.595Z,100337.53
2023-04-01T19:17:37.872Z,100372.00
2023-04-01T19:20:22.232Z,100389.41
2023-04-01T19:23:17.718Z,100424.03
2023-04-01T19:25:44.267Z,100441.53
2023-04-01T19:28:33.031Z,100455.25
2023-04-01T19:31:18.207Z,100450.44
2023-04-01T19:34:03.829Z,100474.31
2023-04-01T19:36:38.975Z,100494.53
2023-04-01T19:39:24.382Z,100513.94
2023-04-01T19:41:52.782Z,100540.88
2023-04-01T19:44:19.032Z,100545.63
2023-04-01T19:46:56.636Z,100534.72
2023-04-01T19:49:26.276Z,100516.31
2023-04-01T19:51:56.996Z,100499.56
2023-04-01T19:54:23.349Z,100479.88
2023-04-01T19:57:07.550Z,100497.50
2023-04-01T19:59:43.151Z,100512.22
2023-04-01T20:02:09.428Z,100523.50
2023-04-01T20:04:40.404Z,100539.59
2023-04-01T20:07:17.365Z,100519.84
2023-04-01T20:09:46.962Z,100533.88
2023-04-01T20:12:13.145Z,100546.16
2023-04-01T20:14:44.897Z,100576.50
2023-04-01T20:17:27.419Z,100577.56
2023-04-01T20:19:55.631Z,100561.03
2023-04-01T20:22:25.156Z,100574.88
2023-04-01T20:24:51.395Z,100582.47
2023-04-01T20:27:24.960Z,100594.75
2023-04-01T20:30:00.399Z,100593.75
2023-04-01T20:32:44.955Z,100601.91
2023-04-01T20:35:30.074Z,100582.50
2023-04-01T20:38:20.452Z,100592.59
2023-04-01T20:40:48.352Z,100611.16
2023-04-01T20:43:14.563Z,100619.66
2023-04-01T20:45:40.784Z,100635.69
2023-04-01T20:48:10.251Z,100639.63
2023-04-01T20:50:36.504Z,100640.91
2023-04-01T20:53:12.045Z,100656.88
2023-04-01T20:55:47.592Z,100689.16
2023-04-01T20:58:32.158Z,100684.81
2023-04-01T21:01:01.617Z,100687.34
2023-04-01T21:03:27.859Z,100680.78
2023-04-01T21:06:12.310Z,100699.59
2023-04-01T21:08:47.889Z,100714.19
2023-04-01T21:11:19.606Z,100706.19
2023-04-01T21:13:54.241Z,100697.41
2023-04-01T21:16:38.759Z,100690.41
2023-04-01T21:19:07.973Z,100695.38
2023-04-01T21:21:44.608Z,100692.44
2023-04-01T21:24:10.780Z,100693.66
2023-04-01T21:26:47.227Z,100702.97
2023-04-01T21:29:19.553Z,100705.66
2023-04-01T21:31:57.974Z,100728.69
2023-04-01T21:34:45.019Z,100726.28
2023-04-01T21:37:30.383Z,100734.81
2023-04-01T21:40:05.269Z,100766.75
2023-04-01T21:42:34.341Z,100780.25
2023-04-01T21:45:18.865Z,100794.69
2023-04-01T21:48:03.773Z,100791.50
2023-04-01T21:50:40.762Z,100793.25
2023-04-01T21:53:19.149Z,100790.91
2023-04-01T21:55:57.683Z,100804.53
2023-04-01T21:58:29.033Z,100806.78
2023-04-01T22:01:09.415Z,100806.94
2023-04-01T22:03:43.158Z,100812.25
2023-04-01T22:06:15.915Z,100798.94
2023-04-01T22:08:42.094Z,100808.72
2023-04-01T22:11:10.930Z,100809.06
2023-04-01T22:13:40.259Z,100812.44
2023-04-01T22:16:10.054Z,100811.13
2023-04-01T22:18:51.728Z,100819.16
2023-04-01T22:21:30.438Z,100815.47
2023-04-01T22:23:56.624Z,100829.78
2023-04-01T22:26:41.827Z,100830.97
2023-04-01T22:29:09.069Z,100827.66
2023-04-01T22:31:49.013Z,100830.22
2023-04-01T22:34:29.925Z,100836.81
2023-04-01T22:37:04.774Z,100839.00
2023-04-01T22:39:40.233Z,100858.25
2023-04-01T22:42:20.689Z,100860.50
2023-04-01T22:44:50.867Z,100866.63
2023-04-01T22:47:23.672Z,100878.81
2023-04-01T22:49:55.389Z,100875.78
2023-04-01T22:52:24.805Z,100875.31
2023-04-01T22:54:54.899Z,100881.72
2023-04-01T22:57:21.454Z,100874.69
2023-04-01T22:59:55.247Z,100879.38
2023-04-01T23:02:24.555Z,100892.53
2023-04-01T23:04:53.304Z,100906.50
2023-04-01T23:07:38.559Z,100908.59
2023-04-01T23:10:08.654Z,100915.34
2023-04-01T23:12:34.921Z,100922.72
2023-04-01T23:17:50.522Z,100935.91
2023-04-01T23:23:37.660Z,100953.41
2023-04-01T23:26:18.121Z,100959.97
2023-04-01T23:28:45.349Z,100959.34
2023-04-01T23:31:30.522Z,100970.88
2023-04-01T23:34:00.930Z,100965.28
2023-04-01T23:36:28.336Z,100960.78
2023-04-01T23:38:54.538Z,100962.41
2023-04-01T23:41:28.422Z,100963.34
2023-04-01T23:44:13.118Z,100971.03
2023-04-01T23:46:40.153Z,100977.94
2023-04-01T23:49:06.854Z,100978.72
2023-04-01T23:51:40.224Z,100983.25
2023-04-01T23:54:19.650Z,100985.00
2023-04-01T23:56:49.418Z,100988.22
2023-04-01T23:59:28.969Z,100992.88
